EW1060 Weather Reports


time (UTC)temp
F
wind
direction
speed
knots
gust
knots
rain 1hr
in
rain 24hr
in
rain mn
in
humidity
%
barometer
mb
20190223223145 38 55 0.9 9.6 0.00 0.01 0.01 58 1035.0
20190223221630 39 343 0.0 2.6 0.00 0.01 0.01 58 1035.0
20190223220142 39 105 0.9 4.3 0.00 0.01 0.01 58 1035.0
20190223214629 39 91 0.0 3.5 0.00 0.01 0.01 58 1035.1
20190223213206 40 70 0.0 1.7 0.00 0.01 0.01 58 1035.1
20190223211716 40 80 0.0 1.7 0.00 0.01 0.01 57 1035.1
20190223210139 40 82 0.0 0.9 0.00 0.01 0.01 56 1035.1
20190223204749 41 84 0.0 1.7 0.00 0.01 0.01 55 1035.0
20190223203257 42 98 0.0 2.6 0.00 0.01 0.01 53 1034.9
20190223201627 42 46 0.9 4.3 0.00 0.01 0.01 51 1034.9
20190223200153 43 112 0.0 2.6 0.00 0.01 0.01 51 1034.9
20190223194636 43 19 0.0 4.3 0.00 0.01 0.01 51 1034.9
20190223193201 43 118 0.0 0.9 0.00 0.01 0.01 52 1035.0
20190223191632 43 118 0.0 2.6 0.00 0.01 0.01 51 1034.8
20190223190109 44 97 0.9 2.6 0.00 0.01 0.01 52 1034.8
20190223184646 44 92 0.0 2.6 0.00 0.01 0.01 54 1034.7
20190223183109 44 83 0.0 1.7 0.00 0.01 0.01 58 1034.6
20190223181626 43 59 0.0 2.6 0.00 0.01 0.01 63 1034.4
20190223180112 43 57 0.0 0.0 0.00 0.01 0.01 73 1034.3
20190223174626 44 57 0.0 0.9 0.00 0.01 0.01 71 1034.1
20190223173128 45 57 0.0 0.0 0.00 0.01 0.01 68 1034.0
20190223171708 47 57 0.0 0.0 0.00 0.01 0.01 63 1033.9
20190223170140 48 57 0.0 3.5 0.00 0.01 0.01 60 1033.7
20190223164651 48 32 0.0 3.5 0.00 0.01 0.01 58 1033.6
20190223163126 49 5 0.0 2.6 0.00 0.01 0.01 58 1033.5
20190223161629 50 70 0.9 2.6 0.00 0.01 0.01 57 1033.1
20190223160132 50 148 0.0 3.5 0.00 0.01 0.01 57 1033.3
20190223154609 51 34 0.0 4.3 0.00 0.01 0.01 57 1033.5
20190223153126 51 42 0.0 2.6 0.00 0.01 0.01 58 1033.6
20190223151551 50 114 0.0 2.6 0.00 0.01 0.01 59 1033.7
20190223150051 50 103 0.9 3.5 0.00 0.01 0.01 60 1033.8
20190223144608 49 85 0.0 5.2 0.00 0.01 0.01 61 1033.9
20190223143039 49 160 0.0 5.2 0.00 0.01 0.01 64 1033.9
20190223141548 49 99 0.0 5.2 0.00 0.01 0.01 65 1033.9
20190223140042 49 108 0.9 4.3 0.00 0.01 0.01 66 1033.9
20190223134605 48 88 0.0 6.1 0.00 0.01 0.01 70 1033.7
20190223133056 48 134 0.9 2.6 0.00 0.01 0.01 69 1033.5
20190223131550 48 187 0.0 2.6 0.00 0.01 0.01 69 1033.5
20190223130029 47 31 0.9 3.5 0.00 0.01 0.01 72 1034.0
20190223124530 47 132 0.9 3.5 0.00 0.01 0.01 72 1034.2
20190223123027 46 106 0.9 6.1 0.00 0.01 0.01 75 1034.3
20190223121517 46 77 0.9 4.3 0.00 0.01 0.01 75 1034.3
20190223120027 45 73 0.9 3.5 0.00 0.01 0.01 76 1034.2
20190223114524 44 38 0.0 5.2 0.00 0.01 0.01 79 1034.2
20190223113027 44 123 0.0 2.6 0.00 0.01 0.01 79 1034.5
20190223111730 43 54 0.0 2.6 0.00 0.01 0.01 81 1034.9
20190223110208 43 140 0.0 2.6 0.00 0.01 0.01 82 1034.8
20190223104752 43 35 0.0 3.5 0.00 0.01 0.01 83 1034.9
20190223103123 42 91 0.0 4.3 0.00 0.01 0.01 84 1034.9
20190223101650 42 36 0.0 3.5 0.00 0.01 0.01 85 1034.7
20190223100201 42 87 0.0 4.3 0.00 0.01 0.01 86 1034.7
20190223094630 41 51 0.9 4.3 0.00 0.01 0.01 87 1034.6
20190223093110 41 75 0.0 2.6 0.00 0.01 0.01 88 1034.6
20190223091638 41 76 0.9 4.3 0.00 0.01 0.01 90 1034.7
20190223090102 40 44 0.9 5.2 0.00 0.01 0.01 91 1034.6
20190223084639 40 78 0.0 3.5 0.00 0.01 0.01 93 1034.5
20190223083114 39 46 0.9 3.5 0.00 0.01 0.01 95 1034.4
20190223081618 39 43 0.0 4.3 0.00 0.01 0.01 97 1034.6
20190223080130 38 115 0.9 7.0 0.00 0.01 0.01 98 1034.5
20190223074552 36 193 0.0 0.0 0.00 0.01 0.01 97 1034.7
20190223073037 35 193 0.0 0.0 0.00 0.01 0.01 97 1034.6
20190223071529 35 193 0.0 0.0 0.00 0.01 0.01 97 1034.6
20190223070103 35 193 0.0 0.0 0.00 0.01 0.01 97 1034.5
20190223064541 34 193 0.0 0.0 0.00 0.01 0.01 97 1034.3
20190223063026 34 193 0.0 0.0 0.01 0.01 0.01 97 1034.2
20190223061549 34 193 0.0 1.7 0.01 0.01 0.01 97 1034.2
20190223060044 33 193 0.0 0.0 0.01 0.01 0.01 97 1034.3
20190223054609 33 193 0.0 0.0 0.01 0.01 0.01 97 1034.2
20190223053030 32 193 0.0 0.0 0.00 0.00 0.00 97 1034.5
20190223051522 32 193 0.0 0.0 0.00 0.00 0.00 97 1034.6
20190223050020 31 193 0.0 0.0 0.00 0.00 0.00 96 1034.7
20190223044543 31 193 0.0 0.0 0.00 0.00 0.00 96 1034.8
20190223043039 31 193 0.0 1.7 0.00 0.00 0.00 96 1035.0
20190223041511 32 193 0.0 1.7 0.00 0.00 0.00 96 1034.9
20190223040011 32 193 0.0 0.9 0.00 0.00 0.00 95 1034.7
20190223034513 32 193 0.0 0.9 0.00 0.00 0.00 95 1034.7
20190223033032 32 193 0.0 2.6 0.00 0.00 0.00 95 1034.8
20190223031503 33 193 0.0 1.7 0.00 0.00 0.00 95 1034.9
20190223030223 33 193 0.0 2.6 0.00 0.00 0.00 95 1035.0
20190223024739 34 193 0.0 3.5 0.00 0.00 0.00 95 1035.1
20190223023333 34 190 0.0 2.6 0.00 0.00 0.00 95 1035.1
20190223021644 34 190 0.0 2.6 0.00 0.00 0.00 95 1034.9
20190223020124 34 191 0.0 1.7 0.00 0.00 0.00 95 1034.9
20190223014814 34 191 0.9 2.6 0.00 0.00 0.00 95 1034.8
20190223013206 34 191 0.9 3.5 0.00 0.00 0.00 95 1034.6
20190223011638 34 186 0.0 2.6 0.00 0.00 0.00 95 1034.5
20190223010106 34 186 0.0 0.0 0.00 0.00 0.00 94 1034.6
20190223004615 35 186 0.0 0.0 0.00 0.00 0.00 93 1034.5
20190223003118 35 186 0.0 0.0 0.00 0.00 0.00 93 1034.5
20190223001627 36 186 0.0 0.9 0.00 0.00 0.00 94 1034.7
20190223000111 36 186 0.9 2.6 0.00 0.00 0.00 94 1034.7
20190222234715 36 173 0.0 1.7 0.00 0.00 0.00 92 1034.5
20190222233102 37 173 0.9 2.6 0.00 0.00 0.00 93 1034.6
20190222231634 37 211 0.9 3.5 0.00 0.00 0.00 93 1034.5
20190222230030 37 210 0.9 2.6 0.00 0.00 0.00 93 1034.4
20190222224636 38 211 1.7 3.5 0.00 0.00 0.00 93 1034.5